sensor_id;sensor_type;location;lat;lon;timestamp;P1;durP1;ratioP1;P2;durP2;ratioP2
38037;SDS011;23843;51.320;12.340;2022-09-12T04:30:15;1.00;;;0.90;;
38037;SDS011;23843;51.320;12.340;2022-09-12T04:32:41;0.83;;;0.83;;
38037;SDS011;23843;51.320;12.340;2022-09-12T04:35:06;0.63;;;0.60;;
38037;SDS011;23843;51.320;12.340;2022-09-12T04:37:32;0.63;;;0.63;;
38037;SDS011;23843;51.320;12.340;2022-09-12T04:39:57;0.50;;;0.50;;
38037;SDS011;23843;51.320;12.340;2022-09-12T04:42:22;0.60;;;0.60;;
38037;SDS011;23843;51.320;12.340;2022-09-12T04:44:48;0.53;;;0.53;;
38037;SDS011;23843;51.320;12.340;2022-09-12T04:47:15;0.43;;;0.40;;
38037;SDS011;23843;51.320;12.340;2022-09-12T04:49:40;1.17;;;1.10;;
38037;SDS011;23843;51.320;12.340;2022-09-12T04:52:06;0.40;;;0.40;;
38037;SDS011;23843;51.320;12.340;2022-09-12T04:54:31;1.27;;;0.73;;
38037;SDS011;23843;51.320;12.340;2022-09-12T04:56:56;0.67;;;0.67;;
38037;SDS011;23843;51.320;12.340;2022-09-12T04:59:22;0.50;;;0.50;;
38037;SDS011;23843;51.320;12.340;2022-09-12T05:01:47;0.50;;;0.40;;
38037;SDS011;23843;51.320;12.340;2022-09-12T05:04:14;0.50;;;0.50;;
38037;SDS011;23843;51.320;12.340;2022-09-12T05:06:40;0.50;;;0.50;;
38037;SDS011;23843;51.320;12.340;2022-09-12T05:09:07;0.70;;;0.70;;
38037;SDS011;23843;51.320;12.340;2022-09-12T05:11:36;0.80;;;0.73;;
38037;SDS011;23843;51.320;12.340;2022-09-12T05:14:03;0.80;;;0.63;;
38037;SDS011;23843;51.320;12.340;2022-09-12T05:16:28;0.60;;;0.60;;
38037;SDS011;23843;51.320;12.340;2022-09-12T05:18:54;0.60;;;0.57;;
38037;SDS011;23843;51.320;12.340;2022-09-12T05:21:22;0.80;;;0.60;;
38037;SDS011;23843;51.320;12.340;2022-09-12T05:23:49;0.40;;;0.40;;
38037;SDS011;23843;51.320;12.340;2022-09-12T05:26:15;0.60;;;0.60;;
38037;SDS011;23843;51.320;12.340;2022-09-12T05:28:41;0.60;;;0.60;;
38037;SDS011;23843;51.320;12.340;2022-09-12T05:31:07;0.60;;;0.60;;
38037;SDS011;23843;51.320;12.340;2022-09-12T05:33:36;0.87;;;0.77;;
38037;SDS011;23843;51.320;12.340;2022-09-12T05:36:03;0.50;;;0.50;;
38037;SDS011;23843;51.320;12.340;2022-09-12T05:38:32;1.10;;;0.97;;
38037;SDS011;23843;51.320;12.340;2022-09-12T05:41:02;0.97;;;0.67;;
38037;SDS011;23843;51.320;12.340;2022-09-12T05:43:28;0.70;;;0.70;;
38037;SDS011;23843;51.320;12.340;2022-09-12T05:45:58;2.43;;;1.13;;
38037;SDS011;23843;51.320;12.340;2022-09-12T05:48:24;1.07;;;0.70;;
38037;SDS011;23843;51.320;12.340;2022-09-12T05:50:50;1.00;;;0.80;;
38037;SDS011;23843;51.320;12.340;2022-09-12T05:53:15;1.00;;;0.90;;
38037;SDS011;23843;51.320;12.340;2022-09-12T05:55:42;1.10;;;1.00;;
38037;SDS011;23843;51.320;12.340;2022-09-12T05:58:07;0.83;;;0.80;;
38037;SDS011;23843;51.320;12.340;2022-09-12T06:00:32;1.00;;;0.90;;
38037;SDS011;23843;51.320;12.340;2022-09-12T06:02:58;1.00;;;0.90;;
38037;SDS011;23843;51.320;12.340;2022-09-12T06:05:23;1.10;;;0.90;;
38037;SDS011;23843;51.320;12.340;2022-09-12T06:07:48;0.70;;;0.70;;
38037;SDS011;23843;51.320;12.340;2022-09-12T06:10:14;0.82;;;0.80;;
38037;SDS011;23843;51.320;12.340;2022-09-12T06:12:41;1.73;;;1.63;;
38037;SDS011;23843;51.320;12.340;2022-09-12T06:15:06;0.98;;;0.90;;
38037;SDS011;23843;51.320;12.340;2022-09-12T06:17:32;2.75;;;1.15;;
38037;SDS011;23843;51.320;12.340;2022-09-12T06:19:58;1.20;;;0.95;;
38037;SDS011;23843;51.320;12.340;2022-09-12T06:22:23;0.80;;;0.80;;
38037;SDS011;23843;51.320;12.340;2022-09-12T06:24:48;1.10;;;1.00;;
38037;SDS011;23843;51.320;12.340;2022-09-12T06:27:14;0.98;;;0.90;;
38037;SDS011;23843;51.320;12.340;2022-09-12T06:29:41;1.23;;;1.13;;
38037;SDS011;23843;51.320;12.340;2022-09-12T06:32:06;0.80;;;0.80;;
38037;SDS011;23843;51.320;12.340;2022-09-12T06:34:31;1.80;;;0.98;;
38037;SDS011;23843;51.320;12.340;2022-09-12T06:36:57;1.58;;;1.40;;
38037;SDS011;23843;51.320;12.340;2022-09-12T06:39:22;1.58;;;1.48;;
38037;SDS011;23843;51.320;12.340;2022-09-12T06:41:48;1.23;;;1.13;;
38037;SDS011;23843;51.320;12.340;2022-09-12T06:44:14;1.02;;;0.93;;
38037;SDS011;23843;51.320;12.340;2022-09-12T06:46:42;0.90;;;0.90;;
38037;SDS011;23843;51.320;12.340;2022-09-12T06:49:08;1.23;;;0.93;;
38037;SDS011;23843;51.320;12.340;2022-09-12T06:51:34;1.20;;;1.10;;
38037;SDS011;23843;51.320;12.340;2022-09-12T06:53:59;1.20;;;1.10;;
38037;SDS011;23843;51.320;12.340;2022-09-12T06:56:25;1.30;;;1.10;;
38037;SDS011;23843;51.320;12.340;2022-09-12T06:58:51;1.20;;;1.10;;
38037;SDS011;23843;51.320;12.340;2022-09-12T07:01:18;1.30;;;1.20;;
38037;SDS011;23843;51.320;12.340;2022-09-12T07:03:48;0.82;;;0.80;;
38037;SDS011;23843;51.320;12.340;2022-09-12T07:06:15;0.88;;;0.88;;
38037;SDS011;23843;51.320;12.340;2022-09-12T07:08:42;1.08;;;0.98;;
38037;SDS011;23843;51.320;12.340;2022-09-12T07:11:08;0.90;;;0.90;;
38037;SDS011;23843;51.320;12.340;2022-09-12T07:13:35;1.35;;;1.10;;
38037;SDS011;23843;51.320;12.340;2022-09-12T07:16:01;1.15;;;1.02;;
38037;SDS011;23843;51.320;12.340;2022-09-12T07:18:26;1.20;;;1.10;;
38037;SDS011;23843;51.320;12.340;2022-09-12T07:20:53;1.02;;;0.93;;
38037;SDS011;23843;51.320;12.340;2022-09-12T07:23:19;1.23;;;1.13;;
38037;SDS011;23843;51.320;12.340;2022-09-12T07:25:50;1.30;;;1.20;;
38037;SDS011;23843;51.320;12.340;2022-09-12T07:28:16;1.30;;;1.20;;
38037;SDS011;23843;51.320;12.340;2022-09-12T07:30:42;1.45;;;1.08;;
38037;SDS011;23843;51.320;12.340;2022-09-12T07:33:07;1.88;;;1.67;;
38037;SDS011;23843;51.320;12.340;2022-09-12T07:35:32;1.15;;;1.00;;
38037;SDS011;23843;51.320;12.340;2022-09-12T07:37:59;0.90;;;0.90;;
38037;SDS011;23843;51.320;12.340;2022-09-12T07:40:25;1.88;;;1.38;;
38037;SDS011;23843;51.320;12.340;2022-09-12T07:42:50;1.65;;;1.55;;
38037;SDS011;23843;51.320;12.340;2022-09-12T07:45:15;1.52;;;1.42;;
38037;SDS011;23843;51.320;12.340;2022-09-12T07:47:41;1.50;;;1.40;;
38037;SDS011;23843;51.320;12.340;2022-09-12T07:50:06;1.20;;;1.10;;
38037;SDS011;23843;51.320;12.340;2022-09-12T07:52:32;1.17;;;1.08;;
38037;SDS011;23843;51.320;12.340;2022-09-12T07:54:59;2.63;;;2.42;;
38037;SDS011;23843;51.320;12.340;2022-09-12T07:57:24;1.42;;;1.33;;
38037;SDS011;23843;51.320;12.340;2022-09-12T07:59:49;1.52;;;1.42;;
38037;SDS011;23843;51.320;12.340;2022-09-12T08:02:15;0.90;;;0.90;;
38037;SDS011;23843;51.320;12.340;2022-09-12T08:04:40;1.33;;;1.23;;
38037;SDS011;23843;51.320;12.340;2022-09-12T08:07:06;1.20;;;1.10;;
38037;SDS011;23843;51.320;12.340;2022-09-12T08:09:31;1.48;;;1.38;;
38037;SDS011;23843;51.320;12.340;2022-09-12T08:11:58;1.40;;;1.30;;
38037;SDS011;23843;51.320;12.340;2022-09-12T08:14:23;1.35;;;1.25;;
38037;SDS011;23843;51.320;12.340;2022-09-12T08:16:49;1.13;;;1.00;;
38037;SDS011;23843;51.320;12.340;2022-09-12T08:19:14;1.40;;;1.30;;
38037;SDS011;23843;51.320;12.340;2022-09-12T08:21:39;1.30;;;1.20;;
38037;SDS011;23843;51.320;12.340;2022-09-12T08:24:05;2.30;;;2.10;;
38037;SDS011;23843;51.320;12.340;2022-09-12T08:26:31;2.00;;;1.90;;
38037;SDS011;23843;51.320;12.340;2022-09-12T08:28:59;1.45;;;1.13;;
38037;SDS011;23843;51.320;12.340;2022-09-12T08:31:25;2.80;;;2.60;;
38037;SDS011;23843;51.320;12.340;2022-09-12T08:33:51;2.20;;;2.00;;
38037;SDS011;23843;51.320;12.340;2022-09-12T08:36:19;2.30;;;2.10;;
38037;SDS011;23843;51.320;12.340;2022-09-12T08:38:46;1.40;;;1.30;;
38037;SDS011;23843;51.320;12.340;2022-09-12T08:41:14;2.15;;;1.95;;
38037;SDS011;23843;51.320;12.340;2022-09-12T08:43:54;1.80;;;1.70;;
38037;SDS011;23843;51.320;12.340;2022-09-12T08:46:31;1.25;;;1.15;;
38037;SDS011;23843;51.320;12.340;2022-09-12T08:49:00;1.65;;;1.55;;
38037;SDS011;23843;51.320;12.340;2022-09-12T08:51:28;2.47;;;2.25;;
38037;SDS011;23843;51.320;12.340;2022-09-12T08:53:57;1.83;;;1.73;;
38037;SDS011;23843;51.320;12.340;2022-09-12T08:56:25;1.92;;;1.83;;
38037;SDS011;23843;51.320;12.340;2022-09-12T08:58:53;1.40;;;1.30;;
38037;SDS011;23843;51.320;12.340;2022-09-12T09:01:22;1.10;;;1.10;;
38037;SDS011;23843;51.320;12.340;2022-09-12T09:03:55;1.20;;;1.10;;
38037;SDS011;23843;51.320;12.340;2022-09-12T09:06:43;1.27;;;1.27;;
38037;SDS011;23843;51.320;12.340;2022-09-12T09:09:19;2.95;;;2.15;;
38037;SDS011;23843;51.320;12.340;2022-09-12T09:11:56;2.40;;;2.20;;
38037;SDS011;23843;51.320;12.340;2022-09-12T09:14:38;1.25;;;1.15;;
38037;SDS011;23843;51.320;12.340;2022-09-12T09:17:19;2.00;;;1.80;;
38037;SDS011;23843;51.320;12.340;2022-09-12T09:19:51;1.60;;;1.50;;
38037;SDS011;23843;51.320;12.340;2022-09-12T09:22:22;1.20;;;1.10;;
38037;SDS011;23843;51.320;12.340;2022-09-12T09:24:57;1.00;;;1.00;;
38037;SDS011;23843;51.320;12.340;2022-09-12T09:27:27;1.50;;;1.40;;
38037;SDS011;23843;51.320;12.340;2022-09-12T09:29:56;1.20;;;1.00;;
38037;SDS011;23843;51.320;12.340;2022-09-12T09:32:24;1.20;;;1.13;;
38037;SDS011;23843;51.320;12.340;2022-09-12T09:34:50;0.90;;;0.90;;
38037;SDS011;23843;51.320;12.340;2022-09-12T09:37:17;1.40;;;1.30;;
38037;SDS011;23843;51.320;12.340;2022-09-12T09:39:47;1.70;;;1.10;;
38037;SDS011;23843;51.320;12.340;2022-09-12T09:42:24;1.05;;;0.95;;
38037;SDS011;23843;51.320;12.340;2022-09-12T09:44:58;0.88;;;0.88;;
38037;SDS011;23843;51.320;12.340;2022-09-12T09:47:28;0.60;;;0.60;;
38037;SDS011;23843;51.320;12.340;2022-09-12T09:49:53;0.50;;;0.50;;
38037;SDS011;23843;51.320;12.340;2022-09-12T09:52:19;0.55;;;0.55;;
38037;SDS011;23843;51.320;12.340;2022-09-12T09:54:50;0.50;;;0.50;;
38037;SDS011;23843;51.320;12.340;2022-09-12T09:57:38;0.93;;;0.88;;
38037;SDS011;23843;51.320;12.340;2022-09-12T10:06:06;0.93;;;0.93;;
38037;SDS011;23843;51.320;12.340;2022-09-12T10:08:46;0.77;;;0.77;;
38037;SDS011;23843;51.320;12.340;2022-09-12T10:11:16;0.68;;;0.60;;
38037;SDS011;23843;51.320;12.340;2022-09-12T10:13:50;0.43;;;0.43;;
38037;SDS011;23843;51.320;12.340;2022-09-12T10:16:18;1.05;;;1.00;;
38037;SDS011;23843;51.320;12.340;2022-09-12T10:18:45;0.68;;;0.68;;
38037;SDS011;23843;51.320;12.340;2022-09-12T10:21:16;0.50;;;0.50;;
38037;SDS011;23843;51.320;12.340;2022-09-12T10:23:45;0.25;;;0.25;;
38037;SDS011;23843;51.320;12.340;2022-09-12T10:26:14;0.35;;;0.35;;
38037;SDS011;23843;51.320;12.340;2022-09-12T10:28:44;0.30;;;0.30;;
38037;SDS011;23843;51.320;12.340;2022-09-12T10:31:14;0.52;;;0.52;;
38037;SDS011;23843;51.320;12.340;2022-09-12T10:33:47;0.40;;;0.40;;
38037;SDS011;23843;51.320;12.340;2022-09-12T10:36:15;0.30;;;0.30;;
38037;SDS011;23843;51.320;12.340;2022-09-12T10:38:47;0.40;;;0.40;;
38037;SDS011;23843;51.320;12.340;2022-09-12T10:41:13;0.40;;;0.40;;
38037;SDS011;23843;51.320;12.340;2022-09-12T10:43:39;0.30;;;0.30;;
38037;SDS011;23843;51.320;12.340;2022-09-12T10:46:21;0.70;;;0.70;;
38037;SDS011;23843;51.320;12.340;2022-09-12T10:48:57;0.50;;;0.50;;
38037;SDS011;23843;51.320;12.340;2022-09-12T10:51:38;0.40;;;0.40;;
38037;SDS011;23843;51.320;12.340;2022-09-12T10:54:06;1.00;;;1.00;;
38037;SDS011;23843;51.320;12.340;2022-09-12T10:56:35;1.08;;;0.80;;
38037;SDS011;23843;51.320;12.340;2022-09-12T10:59:12;0.63;;;0.63;;
38037;SDS011;23843;51.320;12.340;2022-09-12T11:01:47;0.40;;;0.40;;
38037;SDS011;23843;51.320;12.340;2022-09-12T11:04:20;0.40;;;0.40;;
38037;SDS011;23843;51.320;12.340;2022-09-12T11:06:55;0.30;;;0.30;;
38037;SDS011;23843;51.320;12.340;2022-09-12T11:09:30;1.15;;;1.05;;
38037;SDS011;23843;51.320;12.340;2022-09-12T11:12:05;2.05;;;1.55;;
38037;SDS011;23843;51.320;12.340;2022-09-12T11:14:39;0.82;;;0.80;;
38037;SDS011;23843;51.320;12.340;2022-09-12T11:17:18;1.00;;;0.90;;
38037;SDS011;23843;51.320;12.340;2022-09-12T11:19:55;0.73;;;0.73;;
38037;SDS011;23843;51.320;12.340;2022-09-12T11:22:38;0.45;;;0.45;;
38037;SDS011;23843;51.320;12.340;2022-09-12T11:25:22;1.00;;;0.80;;
38037;SDS011;23843;51.320;12.340;2022-09-12T11:30:58;0.70;;;0.70;;
38037;SDS011;23843;51.320;12.340;2022-09-12T11:33:42;0.50;;;0.50;;
38037;SDS011;23843;51.320;12.340;2022-09-12T11:36:12;0.45;;;0.45;;
38037;SDS011;23843;51.320;12.340;2022-09-12T11:38:53;0.95;;;0.80;;
38037;SDS011;23843;51.320;12.340;2022-09-12T11:41:26;0.75;;;0.70;;
38037;SDS011;23843;51.320;12.340;2022-09-12T11:43:56;0.60;;;0.60;;
38037;SDS011;23843;51.320;12.340;2022-09-12T11:46:28;0.57;;;0.50;;
38037;SDS011;23843;51.320;12.340;2022-09-12T11:48:58;0.57;;;0.50;;
38037;SDS011;23843;51.320;12.340;2022-09-12T11:51:30;1.00;;;1.00;;
38037;SDS011;23843;51.320;12.340;2022-09-12T11:54:05;0.60;;;0.60;;
38037;SDS011;23843;51.320;12.340;2022-09-12T11:56:39;0.45;;;0.40;;
38037;SDS011;23843;51.320;12.340;2022-09-12T11:59:10;0.40;;;0.40;;
38037;SDS011;23843;51.320;12.340;2022-09-12T12:01:40;0.30;;;0.30;;
38037;SDS011;23843;51.320;12.340;2022-09-12T12:04:09;1.40;;;1.23;;
38037;SDS011;23843;51.320;12.340;2022-09-12T12:06:39;1.13;;;1.02;;
38037;SDS011;23843;51.320;12.340;2022-09-12T12:09:12;1.10;;;1.00;;
38037;SDS011;23843;51.320;12.340;2022-09-12T12:11:39;0.70;;;0.70;;
38037;SDS011;23843;51.320;12.340;2022-09-12T12:14:11;1.27;;;1.17;;
38037;SDS011;23843;51.320;12.340;2022-09-12T12:16:39;0.88;;;0.80;;
38037;SDS011;23843;51.320;12.340;2022-09-12T12:19:19;1.73;;;1.63;;
38037;SDS011;23843;51.320;12.340;2022-09-12T12:21:55;1.70;;;1.60;;
38037;SDS011;23843;51.320;12.340;2022-09-12T12:24:32;0.90;;;0.90;;
38037;SDS011;23843;51.320;12.340;2022-09-12T12:26:59;0.60;;;0.60;;
38037;SDS011;23843;51.320;12.340;2022-09-12T12:29:36;0.60;;;0.60;;
38037;SDS011;23843;51.320;12.340;2022-09-12T12:32:21;0.50;;;0.50;;
38037;SDS011;23843;51.320;12.340;2022-09-12T12:34:47;0.38;;;0.38;;
38037;SDS011;23843;51.320;12.340;2022-09-12T12:40:24;0.32;;;0.32;;
38037;SDS011;23843;51.320;12.340;2022-09-12T12:48:45;0.50;;;0.50;;
38037;SDS011;23843;51.320;12.340;2022-09-12T12:54:32;0.43;;;0.43;;
38037;SDS011;23843;51.320;12.340;2022-09-12T12:57:19;0.30;;;0.30;;
38037;SDS011;23843;51.320;12.340;2022-09-12T12:59:52;0.30;;;0.30;;
38037;SDS011;23843;51.320;12.340;2022-09-12T13:02:23;0.80;;;0.80;;
38037;SDS011;23843;51.320;12.340;2022-09-12T13:04:53;0.40;;;0.40;;
38037;SDS011;23843;51.320;12.340;2022-09-12T13:07:21;0.38;;;0.38;;
38037;SDS011;23843;51.320;12.340;2022-09-12T13:09:51;0.35;;;0.35;;
38037;SDS011;23843;51.320;12.340;2022-09-12T13:12:20;0.75;;;0.70;;
38037;SDS011;23843;51.320;12.340;2022-09-12T13:14:49;0.68;;;0.68;;
38037;SDS011;23843;51.320;12.340;2022-09-12T13:17:21;0.63;;;0.63;;
38037;SDS011;23843;51.320;12.340;2022-09-12T13:19:49;0.40;;;0.40;;
38037;SDS011;23843;51.320;12.340;2022-09-12T13:22:16;1.20;;;1.10;;
38037;SDS011;23843;51.320;12.340;2022-09-12T13:24:46;1.08;;;1.00;;
38037;SDS011;23843;51.320;12.340;2022-09-12T13:27:16;0.80;;;0.80;;
38037;SDS011;23843;51.320;12.340;2022-09-12T13:29:45;1.13;;;1.02;;
38037;SDS011;23843;51.320;12.340;2022-09-12T13:32:10;0.88;;;0.88;;
38037;SDS011;23843;51.320;12.340;2022-09-12T13:34:36;1.40;;;1.30;;
38037;SDS011;23843;51.320;12.340;2022-09-12T13:40:23;0.70;;;0.70;;
38037;SDS011;23843;51.320;12.340;2022-09-12T13:43:10;0.50;;;0.50;;
38037;SDS011;23843;51.320;12.340;2022-09-12T13:45:38;0.70;;;0.70;;
38037;SDS011;23843;51.320;12.340;2022-09-12T13:48:03;0.40;;;0.40;;
38037;SDS011;23843;51.320;12.340;2022-09-12T13:50:36;0.40;;;0.40;;
38037;SDS011;23843;51.320;12.340;2022-09-12T13:53:06;0.50;;;0.50;;
38037;SDS011;23843;51.320;12.340;2022-09-12T13:55:38;0.80;;;0.80;;
38037;SDS011;23843;51.320;12.340;2022-09-12T13:58:06;0.57;;;0.55;;
38037;SDS011;23843;51.320;12.340;2022-09-12T14:00:43;0.75;;;0.75;;
38037;SDS011;23843;51.320;12.340;2022-09-12T14:03:13;0.60;;;0.60;;
38037;SDS011;23843;51.320;12.340;2022-09-12T14:05:53;0.50;;;0.50;;
38037;SDS011;23843;51.320;12.340;2022-09-12T14:08:21;0.50;;;0.50;;
38037;SDS011;23843;51.320;12.340;2022-09-12T14:10:47;0.30;;;0.30;;
38037;SDS011;23843;51.320;12.340;2022-09-12T14:13:17;0.30;;;0.30;;
38037;SDS011;23843;51.320;12.340;2022-09-12T14:15:45;0.30;;;0.30;;
38037;SDS011;23843;51.320;12.340;2022-09-12T14:18:20;0.47;;;0.47;;
38037;SDS011;23843;51.320;12.340;2022-09-12T14:20:47;0.40;;;0.40;;
38037;SDS011;23843;51.320;12.340;2022-09-12T14:23:16;1.05;;;1.00;;
38037;SDS011;23843;51.320;12.340;2022-09-12T14:25:45;0.80;;;0.80;;
38037;SDS011;23843;51.320;12.340;2022-09-12T14:28:11;0.60;;;0.60;;
38037;SDS011;23843;51.320;12.340;2022-09-12T14:30:40;0.50;;;0.50;;
38037;SDS011;23843;51.320;12.340;2022-09-12T14:33:15;0.55;;;0.55;;
38037;SDS011;23843;51.320;12.340;2022-09-12T14:35:44;0.50;;;0.50;;
38037;SDS011;23843;51.320;12.340;2022-09-12T14:38:12;0.73;;;0.73;;
38037;SDS011;23843;51.320;12.340;2022-09-12T14:40:46;0.40;;;0.40;;
38037;SDS011;23843;51.320;12.340;2022-09-12T14:43:18;0.30;;;0.30;;
38037;SDS011;23843;51.320;12.340;2022-09-12T14:45:53;0.60;;;0.60;;
38037;SDS011;23843;51.320;12.340;2022-09-12T14:48:20;0.40;;;0.40;;
38037;SDS011;23843;51.320;12.340;2022-09-12T14:50:47;0.50;;;0.50;;
38037;SDS011;23843;51.320;12.340;2022-09-12T14:53:20;0.50;;;0.50;;
38037;SDS011;23843;51.320;12.340;2022-09-12T14:55:49;0.68;;;0.68;;
38037;SDS011;23843;51.320;12.340;2022-09-12T14:58:21;1.30;;;1.20;;
38037;SDS011;23843;51.320;12.340;2022-09-12T15:03:49;0.75;;;0.75;;
38037;SDS011;23843;51.320;12.340;2022-09-12T15:06:17;0.95;;;0.80;;
38037;SDS011;23843;51.320;12.340;2022-09-12T15:08:46;1.40;;;1.30;;
38037;SDS011;23843;51.320;12.340;2022-09-12T15:11:11;0.80;;;0.80;;
38037;SDS011;23843;51.320;12.340;2022-09-12T15:13:37;0.70;;;0.70;;
38037;SDS011;23843;51.320;12.340;2022-09-12T15:16:06;0.90;;;0.90;;
38037;SDS011;23843;51.320;12.340;2022-09-12T15:18:35;0.80;;;0.80;;
38037;SDS011;23843;51.320;12.340;2022-09-12T15:21:01;1.10;;;1.10;;
38037;SDS011;23843;51.320;12.340;2022-09-12T15:23:29;0.60;;;0.60;;
38037;SDS011;23843;51.320;12.340;2022-09-12T15:25:58;0.68;;;0.68;;
38037;SDS011;23843;51.320;12.340;2022-09-12T15:28:23;0.90;;;0.90;;
38037;SDS011;23843;51.320;12.340;2022-09-12T15:30:49;0.82;;;0.80;;
38037;SDS011;23843;51.320;12.340;2022-09-12T15:33:17;0.80;;;0.80;;
38037;SDS011;23843;51.320;12.340;2022-09-12T15:35:44;0.50;;;0.50;;
38037;SDS011;23843;51.320;12.340;2022-09-12T15:38:10;1.23;;;1.00;;
38037;SDS011;23843;51.320;12.340;2022-09-12T15:40:35;0.82;;;0.75;;
38037;SDS011;23843;51.320;12.340;2022-09-12T15:43:01;1.13;;;0.80;;
38037;SDS011;23843;51.320;12.340;2022-09-12T15:45:27;0.77;;;0.77;;
38037;SDS011;23843;51.320;12.340;2022-09-12T15:47:55;0.70;;;0.70;;
38037;SDS011;23843;51.320;12.340;2022-09-12T15:50:21;0.80;;;0.80;;
38037;SDS011;23843;51.320;12.340;2022-09-12T15:52:48;0.70;;;0.70;;
38037;SDS011;23843;51.320;12.340;2022-09-12T15:55:14;0.63;;;0.63;;
38037;SDS011;23843;51.320;12.340;2022-09-12T15:57:41;0.65;;;0.65;;
38037;SDS011;23843;51.320;12.340;2022-09-12T16:00:07;0.57;;;0.57;;
38037;SDS011;23843;51.320;12.340;2022-09-12T16:02:33;1.08;;;1.00;;
38037;SDS011;23843;51.320;12.340;2022-09-12T16:04:58;1.50;;;1.40;;
38037;SDS011;23843;51.320;12.340;2022-09-12T16:07:24;0.70;;;0.70;;
38037;SDS011;23843;51.320;12.340;2022-09-12T16:09:50;0.60;;;0.60;;
38037;SDS011;23843;51.320;12.340;2022-09-12T16:12:16;0.63;;;0.63;;
38037;SDS011;23843;51.320;12.340;2022-09-12T16:14:41;0.50;;;0.50;;
38037;SDS011;23843;51.320;12.340;2022-09-12T16:17:06;0.98;;;0.98;;
38037;SDS011;23843;51.320;12.340;2022-09-12T16:19:32;0.47;;;0.47;;
38037;SDS011;23843;51.320;12.340;2022-09-12T16:21:57;0.73;;;0.60;;
38037;SDS011;23843;51.320;12.340;2022-09-12T16:24:23;1.38;;;0.50;;
38037;SDS011;23843;51.320;12.340;2022-09-12T16:26:49;0.50;;;0.50;;
38037;SDS011;23843;51.320;12.340;2022-09-12T16:29:15;0.50;;;0.50;;
38037;SDS011;23843;51.320;12.340;2022-09-12T16:31:40;0.50;;;0.50;;
38037;SDS011;23843;51.320;12.340;2022-09-12T16:34:06;0.63;;;0.63;;
38037;SDS011;23843;51.320;12.340;2022-09-12T16:36:31;1.40;;;0.90;;
38037;SDS011;23843;51.320;12.340;2022-09-12T16:38:57;1.10;;;1.00;;
38037;SDS011;23843;51.320;12.340;2022-09-12T16:41:22;1.30;;;1.20;;
38037;SDS011;23843;51.320;12.340;2022-09-12T16:43:50;1.10;;;1.00;;
38037;SDS011;23843;51.320;12.340;2022-09-12T16:46:16;1.10;;;1.00;;
38037;SDS011;23843;51.320;12.340;2022-09-12T16:48:43;1.10;;;1.00;;
38037;SDS011;23843;51.320;12.340;2022-09-12T16:51:09;1.60;;;1.23;;
38037;SDS011;23843;51.320;12.340;2022-09-12T16:53:36;1.42;;;1.33;;
38037;SDS011;23843;51.320;12.340;2022-09-12T16:56:02;0.70;;;0.70;;
38037;SDS011;23843;51.320;12.340;2022-09-12T16:58:30;1.00;;;1.00;;
38037;SDS011;23843;51.320;12.340;2022-09-12T17:01:00;1.00;;;0.90;;
38037;SDS011;23843;51.320;12.340;2022-09-12T17:03:26;0.90;;;0.80;;
38037;SDS011;23843;51.320;12.340;2022-09-12T17:05:56;1.10;;;1.00;;
38037;SDS011;23843;51.320;12.340;2022-09-12T17:08:22;2.25;;;0.93;;
38037;SDS011;23843;51.320;12.340;2022-09-12T17:10:47;0.70;;;0.70;;
38037;SDS011;23843;51.320;12.340;2022-09-12T17:13:13;0.85;;;0.85;;
38037;SDS011;23843;51.320;12.340;2022-09-12T17:15:38;0.80;;;0.80;;
38037;SDS011;23843;51.320;12.340;2022-09-12T17:18:05;0.82;;;0.82;;
38037;SDS011;23843;51.320;12.340;2022-09-12T17:20:30;0.55;;;0.55;;
38037;SDS011;23843;51.320;12.340;2022-09-12T17:22:59;1.30;;;1.20;;
38037;SDS011;23843;51.320;12.340;2022-09-12T17:25:24;0.70;;;0.60;;
38037;SDS011;23843;51.320;12.340;2022-09-12T17:27:50;0.40;;;0.40;;
38037;SDS011;23843;51.320;12.340;2022-09-12T17:30:15;0.60;;;0.60;;
38037;SDS011;23843;51.320;12.340;2022-09-12T17:32:40;0.40;;;0.40;;
38037;SDS011;23843;51.320;12.340;2022-09-12T17:35:08;0.50;;;0.50;;
38037;SDS011;23843;51.320;12.340;2022-09-12T17:37:33;0.30;;;0.30;;
38037;SDS011;23843;51.320;12.340;2022-09-12T17:39:58;1.00;;;1.00;;
38037;SDS011;23843;51.320;12.340;2022-09-12T17:42:24;0.20;;;0.20;;
38037;SDS011;23843;51.320;12.340;2022-09-12T17:44:49;0.28;;;0.28;;
38037;SDS011;23843;51.320;12.340;2022-09-12T17:47:15;0.22;;;0.22;;
38037;SDS011;23843;51.320;12.340;2022-09-12T17:49:40;0.80;;;0.80;;
38037;SDS011;23843;51.320;12.340;2022-09-12T17:52:07;0.30;;;0.30;;
38037;SDS011;23843;51.320;12.340;2022-09-12T17:54:32;0.73;;;0.73;;
38037;SDS011;23843;51.320;12.340;2022-09-12T17:56:57;0.50;;;0.50;;
38037;SDS011;23843;51.320;12.340;2022-09-12T17:59:23;0.30;;;0.30;;
38037;SDS011;23843;51.320;12.340;2022-09-12T18:01:48;0.30;;;0.30;;
38037;SDS011;23843;51.320;12.340;2022-09-12T18:04:14;0.20;;;0.20;;
38037;SDS011;23843;51.320;12.340;2022-09-12T18:06:40;0.40;;;0.40;;
38037;SDS011;23843;51.320;12.340;2022-09-12T18:09:07;1.50;;;1.23;;
38037;SDS011;23843;51.320;12.340;2022-09-12T18:11:33;1.40;;;1.30;;
38037;SDS011;23843;51.320;12.340;2022-09-12T18:13:59;0.50;;;0.50;;
38037;SDS011;23843;51.320;12.340;2022-09-12T18:16:25;0.40;;;0.40;;
38037;SDS011;23843;51.320;12.340;2022-09-12T18:18:51;0.40;;;0.40;;
38037;SDS011;23843;51.320;12.340;2022-09-12T18:21:16;0.85;;;0.85;;
38037;SDS011;23843;51.320;12.340;2022-09-12T18:23:42;0.32;;;0.32;;
38037;SDS011;23843;51.320;12.340;2022-09-12T18:26:09;0.40;;;0.40;;
38037;SDS011;23843;51.320;12.340;2022-09-12T18:28:35;0.50;;;0.43;;
38037;SDS011;23843;51.320;12.340;2022-09-12T18:31:02;0.40;;;0.40;;
38037;SDS011;23843;51.320;12.340;2022-09-12T18:33:28;0.40;;;0.40;;
38037;SDS011;23843;51.320;12.340;2022-09-12T18:35:53;0.30;;;0.30;;
38037;SDS011;23843;51.320;12.340;2022-09-12T18:38:19;0.40;;;0.40;;
38037;SDS011;23843;51.320;12.340;2022-09-12T18:40:44;0.70;;;0.60;;
38037;SDS011;23843;51.320;12.340;2022-09-12T18:43:11;0.50;;;0.50;;
38037;SDS011;23843;51.320;12.340;2022-09-12T18:45:36;0.50;;;0.50;;
38037;SDS011;23843;51.320;12.340;2022-09-12T18:48:02;0.57;;;0.57;;
38037;SDS011;23843;51.320;12.340;2022-09-12T18:50:27;1.60;;;0.70;;
38037;SDS011;23843;51.320;12.340;2022-09-12T18:52:53;0.40;;;0.40;;
38037;SDS011;23843;51.320;12.340;2022-09-12T18:55:18;0.60;;;0.60;;
38037;SDS011;23843;51.320;12.340;2022-09-12T18:57:44;0.50;;;0.50;;
38037;SDS011;23843;51.320;12.340;2022-09-12T19:00:11;0.57;;;0.57;;
38037;SDS011;23843;51.320;12.340;2022-09-12T19:02:37;0.50;;;0.50;;
38037;SDS011;23843;51.320;12.340;2022-09-12T19:05:03;0.40;;;0.40;;
38037;SDS011;23843;51.320;12.340;2022-09-12T19:07:29;0.77;;;0.77;;
38037;SDS011;23843;51.320;12.340;2022-09-12T19:09:54;0.60;;;0.60;;
38037;SDS011;23843;51.320;12.340;2022-09-12T19:12:19;0.50;;;0.50;;
38037;SDS011;23843;51.320;12.340;2022-09-12T19:14:45;0.60;;;0.60;;
38037;SDS011;23843;51.320;12.340;2022-09-12T19:17:12;0.60;;;0.60;;
38037;SDS011;23843;51.320;12.340;2022-09-12T19:19:37;0.70;;;0.70;;
38037;SDS011;23843;51.320;12.340;2022-09-12T19:22:02;0.52;;;0.52;;
38037;SDS011;23843;51.320;12.340;2022-09-12T19:24:28;0.53;;;0.53;;
38037;SDS011;23843;51.320;12.340;2022-09-12T19:26:53;0.50;;;0.50;;
38037;SDS011;23843;51.320;12.340;2022-09-12T19:29:18;0.50;;;0.50;;
38037;SDS011;23843;51.320;12.340;2022-09-12T19:31:44;0.73;;;0.73;;
38037;SDS011;23843;51.320;12.340;2022-09-12T19:34:11;0.60;;;0.60;;
38037;SDS011;23843;51.320;12.340;2022-09-12T19:36:37;0.60;;;0.60;;